Nearby METAR Reports

 

KTAN - Taunton, Massachusetts, USA
Distance from station: W 5mi, 8km
Updated: Tue, 21-Sep-2021 2:52am EDT
Clear
Clear
 Wind from calm
Wind: Calm
Temperature: 45°F , 7°C
Dew Point: 43°F , 6°C
Humidity: 93%
Barometer: 30.40 inHg , 1029.5 hPa
Clouds: Clear
Visibility: 9 miles , 14 km
2021/09/21 06:52 KTAN 210652Z AUTO 00000KT 9SM CLR 07/06 A3040 RMK AO2 SLP295 T00720061
KPYM - Plymouth, Massachusetts, USA
Distance from station: ENE 10mi, 16km
Updated: Tue, 21-Sep-2021 2:52am EDT
Clear
Clear
 Wind from calm
Wind: Calm
Temperature: 50°F , 10°C
Dew Point: 48°F , 9°C
Humidity: 94%
Barometer: 30.41 inHg , 1029.8 hPa
Clouds: Clear
Visibility: 10 miles , 16 km
2021/09/21 06:52 KPYM 210652Z AUTO 00000KT 10SM CLR 10/09 A3041 RMK AO2 SLP296 T01000089
 
KEWB - New Bedford, Massachusetts, USA
Distance from station: S 14mi, 23km
Updated: Tue, 21-Sep-2021 3:08am EDT
Mist, Clear
Mist, Clear
 Wind from calm
Wind: Calm
Temperature: 48°F , 9°C
Dew Point: 46°F , 8°C
Humidity: 94%
Barometer: 30.39 inHg , 1029.1 hPa
Summary: Mist
Clouds: Clear
Visibility: 3 miles , 5 km
2021/09/21 07:08 KEWB 210708Z AUTO 00000KT 3SM BR CLR 09/08 A3039 RMK AO2 T00890083
KGHG - Marshfield, Massachusetts, USA
Distance from station: NE 20mi, 31km
Updated: Tue, 21-Sep-2021 2:55am EDT
Partly cloudy
Partly cloudy
 Wind from calm
Wind: Calm
Temperature: 54°F , 12°C
Dew Point: 50°F , 10°C
Humidity: 88%
Barometer: 30.40 inHg , 1029.5 hPa
Clouds: Partly cloudy
Visibility: 10 miles , 16 km
Cloud details: Partly cloudy 1700 ft
2021/09/21 06:55 KGHG 210655Z AUTO 00000KT 10SM SCT017 12/10 A3040 RMK AO2
 
KOWD - Norwood, Massachusetts, USA
Distance from station: NNW 24mi, 39km
Updated: Tue, 21-Sep-2021 2:53am EDT
Overcast
Overcast
 Wind from calm
Wind: Calm
Temperature: 46°F , 8°C
Dew Point: 45°F , 7°C
Humidity: 93%
Barometer: 30.41 inHg , 1029.8 hPa
Clouds: Overcast
Cloud details: Overcast 200 ft
2021/09/21 06:53 KOWD 210653Z AUTO 00000KT OVC002 08/07 A3041 RMK AO2 SLP297 T00780067 $
KMQE - East Milton, Massachusetts, USA
Distance from station: NNW 25mi, 40km
Updated: Thu, 01-Jul-2021 9:51am EDT
NOT Current

 Wind from WNW
Wind: WNW 9 mph , 15 km/h
Temperature: 75°F , 24°C
Dew Point: 70°F , 21°C
Humidity: 83%
Barometer: 29.86 inHg , 1011.2 hPa
2021/07/01 13:51 KMQE 011351Z AUTO 30008KT 24/21 A2986 RMK AO1 SLP116 T02440206
 
KFMH - Falmouth/Otis Ab, Massachusetts, USA
Distance from station: SE 27mi, 44km
Updated: Tue, 21-Sep-2021 2:45am EDT
Mostly cloudy
Mostly cloudy
 Wind from ENE
Wind: ENE 3 mph , 6 km/h
Temperature: 54°F , 12°C
Dew Point: 52°F , 11°C
Humidity: 94%
Barometer: 30.40 inHg , 1029.5 hPa
Clouds: Mostly cloudy
Visibility: 10 miles , 16 km
Cloud details: Mostly cloudy 2200 ft
2021/09/21 06:45 KFMH 210645Z 06003KT 10SM BKN022 12/11 A3040
KPVD - Providence/Green, Rhode Island, USA
Distance from station: WSW 29mi, 47km
Updated: Tue, 21-Sep-2021 2:51am EDT
Clear
Clear
 Wind from calm
Wind: Calm
Temperature: 55°F , 13°C
Dew Point: 54°F , 12°C
Humidity: 94%
Barometer: 30.41 inHg , 1029.8 hPa
Clouds: Clear
Visibility: 10 miles , 16 km
2021/09/21 06:51 KPVD 210651Z AUTO 00000KT 10SM CLR 13/12 A3041 RMK AO2 SLP297 T01280117
 
KSFZ - Pawtucket, Rhode Island, USA
Distance from station: W 30mi, 48km
Updated: Tue, 21-Sep-2021 2:56am EDT
Clear
Clear
 Wind from calm
Wind: Calm
Temperature: 50°F , 10°C
Dew Point: 48°F , 9°C
Humidity: 94%
Barometer: 30.41 inHg , 1029.8 hPa
Clouds: Clear
Visibility: 10 miles , 16 km
2021/09/21 06:56 KSFZ 210656Z AUTO 00000KT 10SM CLR 10/09 A3041 RMK AO2 SLP304 T01000094 PNO $
KUUU - Newport, Rhode Island, USA
Distance from station: SW 31mi, 50km
Updated: Tue, 21-Sep-2021 2:53am EDT
Clear
Clear
 Wind from E
Wind: E 5 mph , 7 km/h
Temperature: 55°F , 13°C
Dew Point: 52°F , 11°C
Humidity: 88%
Barometer: 30.39 inHg , 1029.1 hPa
Clouds: Clear
Visibility: 10 miles , 16 km
2021/09/21 06:53 KUUU 210653Z AUTO 10004KT 10SM CLR 13/11 A3039 RMK AO2 SLP290 T01330111
 
KOQU - N. Kingston/Quon, Rhode Island, USA
Distance from station: SW 32mi, 52km
Updated: Sun, 19-Sep-2021 5:50pm EDT
NOT Current
Clear
Clear
 Wind from ESE
Wind: ESE 6 mph , 9 km/h
Temperature: 72°F , 22°C
Dew Point: 50°F , 10°C
Humidity: 47%
Barometer: 30.14 inHg , 1020.7 hPa
Clouds: Clear
Visibility: 10 miles , 16 km
2021/09/19 21:50 KOQU 192150Z 11005KT 10SM SKC 22/10 A3014 RMK LAST
KBOS - Boston, Massachusetts, USA
Distance from station: N 33mi, 54km
Updated: Tue, 21-Sep-2021 2:54am EDT
Few Clouds
Few Clouds
 Wind from SSW
Wind: SSW 3 mph , 6 km/h
Temperature: 59°F , 15°C
Dew Point: 52°F , 11°C
Humidity: 77%
Barometer: 30.41 inHg , 1029.8 hPa
Clouds: Few Clouds
Visibility: 10 miles , 16 km
Cloud details: Few Clouds 25000 ft
2021/09/21 06:54 KBOS 210654Z 20003KT 10SM FEW250 15/11 A3041 RMK AO2 SLP298 T01500106
 
KHYA - Hyannis, Massachusetts, USA
Distance from station: ESE 37mi, 59km
Updated: Tue, 21-Sep-2021 2:56am EDT
Mostly cloudy
Mostly cloudy
 Wind from NE
Wind: NE 3 mph , 6 km/h
Temperature: 52°F , 11°C
Dew Point: 52°F , 11°C
Humidity: 100%
Barometer: 30.39 inHg , 1029.1 hPa
Clouds: Mostly cloudy
Visibility: 10 miles , 16 km
Cloud details: Mostly cloudy 1900 ft
2021/09/21 06:56 KHYA 210656Z AUTO 04003KT 10SM BKN019 11/11 A3039 RMK AO2 SLP291 T01110106
KMVY - Marthas Vineyard, Massachusetts, USA
Distance from station: SSE 37mi, 60km
Updated: Tue, 21-Sep-2021 2:53am EDT
Clear
Clear
 Wind from calm
Wind: Calm
Temperature: 50°F , 10°C
Dew Point: 48°F , 9°C
Humidity: 94%
Barometer: 30.39 inHg , 1029.1 hPa
Clouds: Clear
Visibility: 10 miles , 16 km
2021/09/21 06:53 KMVY 210653Z AUTO 00000KT 10SM CLR 10/09 A3039 RMK AO2 SLP292 T01000094
 
KPVC - Provincetown, Massachusetts, USA
Distance from station: ENE 38mi, 61km
Updated: Tue, 21-Sep-2021 2:56am EDT
Clear
Clear
 Wind from E
Wind: E 3 mph , 6 km/h
Temperature: 52°F , 11°C
Dew Point: 50°F , 10°C
Humidity: 94%
Barometer: 30.42 inHg , 1030.1 hPa
Clouds: Clear
Visibility: 10 miles , 16 km
2021/09/21 06:56 KPVC 210656Z AUTO 10003KT 10SM CLR 11/10 A3042 RMK AO2 SLP299 T01060100
KBED - Bedford, Massachusetts, USA
Distance from station: NNW 44mi, 72km
Updated: Tue, 21-Sep-2021 2:51am EDT
Clear
Clear
 Wind from calm
Wind: Calm
Temperature: 50°F , 10°C
Dew Point: 50°F , 10°C
Humidity: 100%
Barometer: 30.40 inHg , 1029.5 hPa
Clouds: Clear
Visibility: 10 miles , 16 km
2021/09/21 06:51 KBED 210651Z AUTO 00000KT 10SM CLR 10/10 A3040 RMK AO2 SLP308 T01000100
 
KBVY - Beverly, Massachusetts, USA
Distance from station: 0 48mi, 77km
Updated: Tue, 21-Sep-2021 2:53am EDT
Clear
Clear
 Wind from calm
Wind: Calm
Temperature: 52°F , 11°C
Dew Point: 52°F , 11°C
Humidity: 100%
Barometer: 30.41 inHg , 1029.8 hPa
Clouds: Clear
Visibility: 10 miles , 16 km
2021/09/21 06:53 KBVY 210653Z AUTO 00000KT 10SM CLR 11/11 A3041 RMK AO2 SLP292 T01110111 $
KCQX - Chatham, Massachusetts, USA
Distance from station: ESE 49mi, 80km
Updated: Tue, 21-Sep-2021 2:52am EDT
Few Clouds
Few Clouds
 Wind from varies
Wind: varies 5 mph , 7 km/h
Temperature: 63°F , 17°C
Dew Point: 57°F , 14°C
Humidity: 83%
Barometer: 30.41 inHg , 1029.8 hPa
Clouds: Few Clouds
Visibility: 10 miles , 16 km
Cloud details: Few Clouds 1400 ft
2021/09/21 06:52 KCQX 210652Z AUTO VRB04KT 10SM FEW014 17/14 A3041 RMK AO2 SLP300 T01670144